createdAt,value
2019-04-30T00:04:40.220Z,29.63
2019-04-30T00:09:40.881Z,29.40
2019-04-30T00:14:42.429Z,28.43
2019-04-30T00:19:45.934Z,29.40
2019-04-30T00:24:49.997Z,28.37
2019-04-30T00:29:51.504Z,29.80
2019-04-30T00:34:53.057Z,29.90
2019-04-30T00:39:55.664Z,29.90
2019-04-30T00:44:59.639Z,28.70
2019-04-30T00:50:05.936Z,28.70
2019-04-30T00:55:09.039Z,29.60
2019-04-30T01:00:11.798Z,31.17
2019-04-30T01:05:18.519Z,29.03
2019-04-30T01:10:24.768Z,28.40
2019-04-30T01:15:24.788Z,29.17
2019-04-30T01:20:31.008Z,29.90
2019-04-30T01:25:30.585Z,39.80
2019-04-30T01:30:32.376Z,30.27
2019-04-30T01:35:34.458Z,31.57
2019-04-30T01:40:38.319Z,30.50
2019-04-30T01:45:39.875Z,34.53
2019-04-30T01:50:42.248Z,40.23
2019-04-30T01:55:49.498Z,58.13
2019-04-30T02:00:55.954Z,42.33
2019-04-30T02:05:59.654Z,37.10
2019-04-30T02:11:01.262Z,66.73
2019-04-30T02:16:02.822Z,39.83
2019-04-30T02:21:04.524Z,46.90
2019-04-30T02:26:05.982Z,35.90
2019-04-30T02:31:09.238Z,44.93
2019-04-30T02:36:13.053Z,91.90
2019-04-30T02:41:15.534Z,76.37
2019-04-30T02:46:19.172Z,84.17
2019-04-30T02:51:24.431Z,83.80
2019-04-30T02:56:27.026Z,82.57
2019-04-30T03:01:30.657Z,67.57
2019-04-30T03:06:32.407Z,50.00
2019-04-30T03:11:34.288Z,46.43
2019-04-30T03:16:40.898Z,38.77
2019-04-30T03:21:50.452Z,38.53
2019-04-30T03:26:52.123Z,38.10
2019-04-30T03:31:53.597Z,37.43
2019-04-30T03:36:55.049Z,33.40
2019-04-30T03:41:56.488Z,36.00
2019-04-30T03:46:59.308Z,35.60
2019-04-30T03:52:01.645Z,36.37
2019-04-30T03:57:03.989Z,34.40
2019-04-30T04:02:23.713Z,53.40
2019-04-30T04:07:36.772Z,81.30
2019-04-30T04:12:39.501Z,82.43
2019-04-30T04:17:41.613Z,133.60
2019-04-30T04:22:43.041Z,139.67
2019-04-30T04:27:44.534Z,145.63
2019-04-30T04:32:46.461Z,129.50
2019-04-30T04:37:49.525Z,101.87
2019-04-30T04:42:51.770Z,90.47
2019-04-30T04:47:53.321Z,70.57
2019-04-30T04:52:55.515Z,78.17
2019-04-30T04:57:59.648Z,83.27
2019-04-30T05:03:05.143Z,100.77
2019-04-30T05:08:08.465Z,98.13
2019-04-30T05:13:10.309Z,139.30
2019-04-30T05:18:12.941Z,128.07
2019-04-30T05:23:14.457Z,157.37
2019-04-30T05:28:16.386Z,178.23
2019-04-30T05:33:18.646Z,181.20
2019-04-30T05:38:20.380Z,169.10
2019-04-30T05:43:22.358Z,151.73
2019-04-30T05:48:23.844Z,142.77
2019-04-30T05:53:25.602Z,128.70
2019-04-30T05:58:27.103Z,126.63
2019-04-30T06:03:32.949Z,113.37
2019-04-30T06:08:34.093Z,121.43
2019-04-30T06:13:54.389Z,108.97
2019-04-30T06:18:58.464Z,103.40
2019-04-30T06:23:59.984Z,105.87
2019-04-30T06:29:01.414Z,115.20
2019-04-30T06:34:04.554Z,107.77
2019-04-30T06:39:06.007Z,111.93
2019-04-30T06:44:07.525Z,106.57
2019-04-30T06:49:09.618Z,99.33
2019-04-30T06:54:12.545Z,87.63
2019-04-30T06:59:14.067Z,68.90
2019-04-30T07:04:15.869Z,65.50
2019-04-30T07:09:19.722Z,58.13
2019-04-30T07:14:21.365Z,62.00
2019-04-30T07:19:32.882Z,63.37
2019-04-30T07:24:26.785Z,62.00
2019-04-30T07:29:29.538Z,66.60
2019-04-30T07:34:36.934Z,64.67
2019-04-30T07:39:35.920Z,60.80
2019-04-30T07:44:39.399Z,57.67
2019-04-30T07:49:49.443Z,60.57
2019-04-30T07:54:45.270Z,58.03
2019-04-30T07:59:46.838Z,56.03
2019-04-30T08:05:02.679Z,54.67
2019-04-30T08:10:08.757Z,49.33
2019-04-30T08:15:10.491Z,48.10
2019-04-30T08:20:12.279Z,46.80
2019-04-30T08:25:14.117Z,46.33
2019-04-30T08:30:25.615Z,49.00
2019-04-30T08:35:19.905Z,48.30
2019-04-30T08:40:22.166Z,48.70
2019-04-30T08:45:23.906Z,53.63
2019-04-30T08:50:25.867Z,55.03
2019-04-30T08:55:30.294Z,61.93
2019-04-30T09:00:31.665Z,55.17
2019-04-30T09:05:35.212Z,54.83
2019-04-30T09:10:39.140Z,56.23
2019-04-30T09:15:41.722Z,57.30
2019-04-30T09:20:43.865Z,56.10
2019-04-30T09:25:51.992Z,57.90
2019-04-30T09:30:55.754Z,54.50
2019-04-30T09:35:57.246Z,55.67
2019-04-30T09:41:11.568Z,56.53
2019-04-30T09:46:25.952Z,55.37
2019-04-30T09:51:20.623Z,55.00
2019-04-30T09:56:23.098Z,55.40
2019-04-30T10:01:25.115Z,58.23
2019-04-30T10:06:38.926Z,53.20
2019-04-30T10:11:49.957Z,52.17
2019-04-30T10:16:56.786Z,58.07
2019-04-30T10:21:59.043Z,51.27
2019-04-30T10:27:01.422Z,54.07
2019-04-30T10:32:03.168Z,54.43
2019-04-30T10:37:05.275Z,53.97
2019-04-30T10:42:12.322Z,53.83
2019-04-30T10:47:16.844Z,54.17
2019-04-30T10:52:19.243Z,51.97
2019-04-30T10:57:21.095Z,50.87
2019-04-30T11:02:22.969Z,53.03
2019-04-30T11:07:24.709Z,51.80
2019-04-30T11:12:26.343Z,50.70
2019-04-30T11:17:32.944Z,52.27
2019-04-30T11:22:33.564Z,51.47
2019-04-30T11:27:36.204Z,51.50
2019-04-30T11:32:38.860Z,55.20
2019-04-30T11:37:40.645Z,54.07
2019-04-30T11:42:42.300Z,53.90
2019-04-30T11:47:53.366Z,55.93
2019-04-30T11:52:48.132Z,55.43
2019-04-30T11:57:49.951Z,52.77
2019-04-30T12:02:52.993Z,53.43
2019-04-30T12:08:09.552Z,51.70
2019-04-30T12:13:25.029Z,51.83
2019-04-30T12:18:27.428Z,52.03
2019-04-30T12:23:29.332Z,53.00
2019-04-30T12:28:30.972Z,51.67
2019-04-30T12:33:33.041Z,50.50
2019-04-30T12:38:35.277Z,51.03
2019-04-30T12:43:38.744Z,52.73
2019-04-30T12:49:00.605Z,48.73
2019-04-30T12:54:05.055Z,49.30
2019-04-30T12:59:06.856Z,49.60
2019-04-30T13:04:09.780Z,49.90
2019-04-30T13:09:12.073Z,49.80
2019-04-30T13:14:15.000Z,51.80
2019-04-30T13:19:17.315Z,50.27
2019-04-30T13:24:21.822Z,50.10
2019-04-30T13:29:47.034Z,51.73
2019-04-30T13:34:55.661Z,50.30
2019-04-30T13:39:59.503Z,52.33
2019-04-30T13:45:01.519Z,54.07
2019-04-30T13:50:04.163Z,53.37
2019-04-30T13:55:06.228Z,54.70
2019-04-30T14:00:13.981Z,51.30
2019-04-30T14:05:17.737Z,52.53
2019-04-30T14:10:19.680Z,50.70
2019-04-30T14:15:21.539Z,51.70
2019-04-30T14:20:23.270Z,52.57
2019-04-30T14:25:25.250Z,51.50
2019-04-30T14:30:29.145Z,50.67
2019-04-30T14:35:30.618Z,50.43
2019-04-30T14:40:32.711Z,52.17
2019-04-30T14:45:39.343Z,50.17
2019-04-30T14:50:41.327Z,51.37
2019-04-30T14:56:08.894Z,50.47
2019-04-30T15:01:11.799Z,51.10
2019-04-30T15:06:14.061Z,50.03
2019-04-30T15:11:15.603Z,51.07
2019-04-30T15:16:17.143Z,51.03
2019-04-30T15:21:18.684Z,52.87
2019-04-30T15:26:22.927Z,55.10
2019-04-30T15:31:26.257Z,53.30
2019-04-30T15:36:29.320Z,53.73
2019-04-30T15:41:30.993Z,54.33
2019-04-30T15:46:32.550Z,53.27
2019-04-30T15:51:34.395Z,53.37
2019-04-30T15:56:39.953Z,53.27
2019-04-30T16:01:42.042Z,56.10
2019-04-30T16:06:43.728Z,61.60
2019-04-30T16:11:49.187Z,55.03
2019-04-30T16:16:59.041Z,62.40
2019-04-30T16:22:00.478Z,58.17
2019-04-30T16:27:02.259Z,56.40
2019-04-30T16:32:03.836Z,57.97
2019-04-30T16:37:05.498Z,56.67
2019-04-30T16:42:08.954Z,56.70
2019-04-30T16:47:14.515Z,57.00
2019-04-30T16:52:18.878Z,60.17
2019-04-30T16:57:20.528Z,55.50
2019-04-30T17:02:26.506Z,58.07
2019-04-30T17:07:39.545Z,57.00
2019-04-30T17:12:52.767Z,57.20
2019-04-30T17:17:55.177Z,59.00
2019-04-30T17:22:59.350Z,57.40
2019-04-30T17:28:01.510Z,68.33
2019-04-30T17:33:04.065Z,58.13
2019-04-30T17:38:06.453Z,60.60
2019-04-30T17:43:08.297Z,60.67
2019-04-30T17:48:10.378Z,60.20
2019-04-30T17:53:12.031Z,64.23
2019-04-30T17:58:13.689Z,67.23
2019-04-30T18:03:15.935Z,66.40
2019-04-30T18:08:18.414Z,65.13
2019-04-30T18:13:20.849Z,59.10
2019-04-30T18:18:25.456Z,56.73
2019-04-30T18:23:34.906Z,55.90
2019-04-30T18:28:37.191Z,59.70
2019-04-30T18:33:39.985Z,62.03
2019-04-30T18:38:42.387Z,58.37
2019-04-30T18:43:44.507Z,61.57
2019-04-30T18:48:46.341Z,62.13
2019-04-30T18:53:49.383Z,66.30
2019-04-30T18:58:52.368Z,67.23
2019-04-30T19:03:58.429Z,75.60
2019-04-30T19:09:02.167Z,72.60
2019-04-30T19:14:09.561Z,79.70
2019-04-30T19:19:19.557Z,83.80
2019-04-30T19:24:22.023Z,82.03
2019-04-30T19:29:23.992Z,83.60
2019-04-30T19:34:31.699Z,63.23
2019-04-30T19:39:33.842Z,74.13
2019-04-30T19:44:35.736Z,69.92
2019-04-30T19:49:38.994Z,73.00
2019-04-30T19:54:41.887Z,75.40
2019-04-30T19:59:43.579Z,78.20
2019-04-30T20:04:45.893Z,75.30
2019-04-30T20:10:00.290Z,77.23
2019-04-30T20:14:52.440Z,74.57
2019-04-30T20:19:55.759Z,80.43
2019-04-30T20:24:59.361Z,81.07
2019-04-30T20:30:09.537Z,82.37
2019-04-30T20:35:12.836Z,92.20
2019-04-30T20:40:18.566Z,83.93
2019-04-30T20:45:26.103Z,74.90
2019-04-30T20:50:30.003Z,81.23
2019-04-30T20:55:31.692Z,74.90
2019-04-30T21:00:33.378Z,74.10
2019-04-30T21:05:35.475Z,75.53
2019-04-30T21:10:44.260Z,64.03
2019-04-30T21:15:49.610Z,67.40
2019-04-30T21:20:51.813Z,70.27
2019-04-30T21:25:53.492Z,70.13
2019-04-30T21:30:55.597Z,75.33
2019-04-30T21:36:08.979Z,75.43
2019-04-30T21:41:11.092Z,76.63
2019-04-30T21:46:12.713Z,75.17
2019-04-30T21:51:15.101Z,81.13
2019-04-30T21:56:17.159Z,78.70
2019-04-30T22:01:20.626Z,81.10
2019-04-30T22:06:23.102Z,79.50
2019-04-30T22:11:24.887Z,85.93
2019-04-30T22:16:26.895Z,87.33
2019-04-30T22:21:30.444Z,87.23
2019-04-30T22:26:32.709Z,89.27
2019-04-30T22:31:34.281Z,94.03
2019-04-30T22:36:38.749Z,95.00
2019-04-30T22:41:40.777Z,92.63
2019-04-30T22:46:44.196Z,87.83
2019-04-30T22:51:49.118Z,93.70
2019-04-30T22:56:50.785Z,89.37
2019-04-30T23:01:57.313Z,76.20
2019-04-30T23:06:59.004Z,70.73
2019-04-30T23:12:02.733Z,71.80
2019-04-30T23:17:05.093Z,70.63
2019-04-30T23:22:06.826Z,70.60
2019-04-30T23:27:08.929Z,61.27
2019-04-30T23:32:13.400Z,65.80
2019-04-30T23:37:14.679Z,65.10
2019-04-30T23:42:16.378Z,62.63
2019-04-30T23:47:17.936Z,69.83
2019-04-30T23:52:19.497Z,65.97
2019-04-30T23:57:21.754Z,67.03
